Mandan, ND (58554)

2:50 PM CDT on September 01, 2014 (GMT -0500)
Blue WaterTower Hill | Change Station
CLOSE
Current Station
Personal Weather Station
Location: Mandan, ND
Elevation: 1764 ft
Nearby Weather Stations

Elev 1764 ft 46.83 °N, 100.88 °W | Updated 0 second ago

Partly Cloudy
Partly Cloudy
71.2 °F
Feels Like 77 °F
N
6.0
Wind Variable Wind from WNW
Gusts 6.0 mph

Today
High -- | Low -- °F
--% Chance of Precip.
Yesterday
High -- | Low -- °F
Precip. -- in
7:03 AM 8:22 PM
Waxing Crescent, 43% visible
Pressure 29.84 in
Visibility 10.0 miles
Clouds Few 5000 ft
Heat Index 77 °F
Dew Point 49 °F
Humidity 46%
Rainfall 0.00 in
Snow Depth Not available.
UV 7 out of 12
Pollen 9.30 out of 12
Air Quality Not available.
Flu Activity Not available.
METAR KY19 011935Z AUTO 32010G16KT 10SM FEW050 22/09 A2984 RMK AO2

More Conditions Fewer Conditions

Pressure 29.84 in
Visibility 10.0 miles
Clouds Few 5000 ft
Heat Index 77 °F
Dew Point 49 °F
Humidity 46%
Rainfall 0.00 in
Snow Depth Not available.
UV 7 out of 12
Pollen 9.30 out of 12
Air Quality Not available.
Flu Activity Not available.
METAR KY19 011935Z AUTO 32010G16KT 10SM FEW050 22/09 A2984 RMK AO2

More Conditions Fewer Conditions

10-Day Weather Forecast

Almanac

Astronomy

Sep. 01, 2014 Rise Set
Actual Time 7:03 AM CDT 8:22 PM CDT
Civil Twilight 6:31 AM CDT 8:54 PM CDT
Nautical Twilight 5:53 AM CDT 9:32 PM CDT
Astronomical Twilight 5:13 AM CDT 10:12 PM CDT
Moon 2:16 PM CDT 11:59 PM CDT
Length of Visible Light 14h 22m
Length of Day
13h 19m
Tomorrow will be 3m 14s shorter.
Waxing Crescent, 43% of the Moon is Illuminated
Today
Waxing Crescent
Sep 2
First Quarter
Sep 8
Full
Sep 15
Last Quarter
Sep 24
New

Today's Extremes

State Highs State Lows

Community

WunderPhotos

Upload Photos

1,749,387 photos uploaded!

WunderBlogs® & News

Nearby

Snow Depth

Station Depth Elevation
No new snow has been reported.

Earthquake Activity

City Distance Mag. Time & Date
No recent earthquake activity has been reported nearby.
Minimum magnitude displayed is 2.5.

Coastal Water Temperatures

Place Temperature
No Stations Reporting

Nearby Weather Stations